sensor_id;sensor_type;location;lat;lon;timestamp;P1;durP1;ratioP1;P2;durP2;ratioP2
12892;SDS011;6514;48.606;9.222;2024-01-06T00:00:56;3.73;;;2.37;;
12892;SDS011;6514;48.606;9.222;2024-01-06T00:03:23;2.40;;;2.20;;
12892;SDS011;6514;48.606;9.222;2024-01-06T00:05:50;5.47;;;2.10;;
12892;SDS011;6514;48.606;9.222;2024-01-06T00:08:17;4.30;;;2.27;;
12892;SDS011;6514;48.606;9.222;2024-01-06T00:10:43;6.83;;;2.43;;
12892;SDS011;6514;48.606;9.222;2024-01-06T00:13:10;4.13;;;2.30;;
12892;SDS011;6514;48.606;9.222;2024-01-06T00:15:37;3.73;;;2.70;;
12892;SDS011;6514;48.606;9.222;2024-01-06T00:18:05;3.30;;;2.47;;
12892;SDS011;6514;48.606;9.222;2024-01-06T00:20:32;3.17;;;2.50;;
12892;SDS011;6514;48.606;9.222;2024-01-06T00:22:59;2.77;;;2.30;;
12892;SDS011;6514;48.606;9.222;2024-01-06T00:25:26;3.27;;;2.30;;
12892;SDS011;6514;48.606;9.222;2024-01-06T00:27:53;4.83;;;2.50;;
12892;SDS011;6514;48.606;9.222;2024-01-06T00:30:19;5.93;;;3.20;;
12892;SDS011;6514;48.606;9.222;2024-01-06T00:32:46;6.20;;;3.70;;
12892;SDS011;6514;48.606;9.222;2024-01-06T00:35:14;6.87;;;3.63;;
12892;SDS011;6514;48.606;9.222;2024-01-06T00:37:41;6.00;;;3.50;;
12892;SDS011;6514;48.606;9.222;2024-01-06T00:40:08;4.10;;;3.03;;
12892;SDS011;6514;48.606;9.222;2024-01-06T00:42:36;7.23;;;3.33;;
12892;SDS011;6514;48.606;9.222;2024-01-06T00:45:03;7.87;;;3.40;;
12892;SDS011;6514;48.606;9.222;2024-01-06T00:47:30;3.63;;;2.77;;
12892;SDS011;6514;48.606;9.222;2024-01-06T00:49:57;4.67;;;2.70;;
12892;SDS011;6514;48.606;9.222;2024-01-06T00:52:25;3.27;;;2.67;;
12892;SDS011;6514;48.606;9.222;2024-01-06T00:54:52;7.60;;;2.70;;
12892;SDS011;6514;48.606;9.222;2024-01-06T00:57:19;5.07;;;3.00;;
12892;SDS011;6514;48.606;9.222;2024-01-06T00:59:49;2.87;;;2.00;;
12892;SDS011;6514;48.606;9.222;2024-01-06T01:02:15;3.47;;;2.20;;
12892;SDS011;6514;48.606;9.222;2024-01-06T01:04:42;2.53;;;2.03;;
12892;SDS011;6514;48.606;9.222;2024-01-06T01:07:10;2.40;;;1.50;;
12892;SDS011;6514;48.606;9.222;2024-01-06T01:09:38;3.93;;;1.93;;
12892;SDS011;6514;48.606;9.222;2024-01-06T01:12:05;3.17;;;1.73;;
12892;SDS011;6514;48.606;9.222;2024-01-06T01:14:32;4.23;;;2.23;;
12892;SDS011;6514;48.606;9.222;2024-01-06T01:16:59;2.93;;;1.90;;
12892;SDS011;6514;48.606;9.222;2024-01-06T01:19:26;3.47;;;1.77;;
12892;SDS011;6514;48.606;9.222;2024-01-06T01:21:52;2.90;;;2.07;;
12892;SDS011;6514;48.606;9.222;2024-01-06T01:24:20;2.47;;;2.23;;
12892;SDS011;6514;48.606;9.222;2024-01-06T01:26:48;3.93;;;2.37;;
12892;SDS011;6514;48.606;9.222;2024-01-06T01:29:15;3.17;;;1.90;;
12892;SDS011;6514;48.606;9.222;2024-01-06T01:31:45;5.27;;;2.10;;
12892;SDS011;6514;48.606;9.222;2024-01-06T01:34:11;4.70;;;2.43;;
12892;SDS011;6514;48.606;9.222;2024-01-06T01:36:38;4.93;;;2.03;;
12892;SDS011;6514;48.606;9.222;2024-01-06T01:39:05;3.80;;;2.00;;
12892;SDS011;6514;48.606;9.222;2024-01-06T01:41:32;3.50;;;1.80;;
12892;SDS011;6514;48.606;9.222;2024-01-06T01:44:00;4.93;;;1.90;;
12892;SDS011;6514;48.606;9.222;2024-01-06T01:46:28;3.77;;;2.00;;
12892;SDS011;6514;48.606;9.222;2024-01-06T01:48:57;1.73;;;1.60;;
12892;SDS011;6514;48.606;9.222;2024-01-06T01:51:27;3.77;;;2.03;;
12892;SDS011;6514;48.606;9.222;2024-01-06T01:53:55;2.53;;;2.10;;
12892;SDS011;6514;48.606;9.222;2024-01-06T01:56:23;3.90;;;1.87;;
12892;SDS011;6514;48.606;9.222;2024-01-06T01:58:50;3.80;;;2.10;;
12892;SDS011;6514;48.606;9.222;2024-01-06T02:01:19;3.93;;;2.03;;
12892;SDS011;6514;48.606;9.222;2024-01-06T02:03:46;3.67;;;1.90;;
12892;SDS011;6514;48.606;9.222;2024-01-06T02:06:13;2.07;;;1.67;;
12892;SDS011;6514;48.606;9.222;2024-01-06T02:08:39;4.73;;;1.57;;
12892;SDS011;6514;48.606;9.222;2024-01-06T02:11:06;4.23;;;1.53;;
12892;SDS011;6514;48.606;9.222;2024-01-06T02:13:33;5.07;;;1.40;;
12892;SDS011;6514;48.606;9.222;2024-01-06T02:16:01;3.00;;;1.40;;
12892;SDS011;6514;48.606;9.222;2024-01-06T02:18:30;2.93;;;1.80;;
12892;SDS011;6514;48.606;9.222;2024-01-06T02:20:58;2.37;;;1.57;;
12892;SDS011;6514;48.606;9.222;2024-01-06T02:23:27;2.07;;;1.40;;
12892;SDS011;6514;48.606;9.222;2024-01-06T02:25:55;3.17;;;1.63;;
12892;SDS011;6514;48.606;9.222;2024-01-06T02:28:22;4.80;;;1.43;;
12892;SDS011;6514;48.606;9.222;2024-01-06T02:30:49;6.33;;;1.90;;
12892;SDS011;6514;48.606;9.222;2024-01-06T02:33:16;1.70;;;1.30;;
12892;SDS011;6514;48.606;9.222;2024-01-06T02:35:44;3.37;;;1.60;;
12892;SDS011;6514;48.606;9.222;2024-01-06T02:38:11;2.10;;;1.40;;
12892;SDS011;6514;48.606;9.222;2024-01-06T02:40:39;2.00;;;1.60;;
12892;SDS011;6514;48.606;9.222;2024-01-06T02:43:07;3.60;;;1.50;;
12892;SDS011;6514;48.606;9.222;2024-01-06T02:45:34;3.03;;;1.40;;
12892;SDS011;6514;48.606;9.222;2024-01-06T02:48:01;3.20;;;1.60;;
12892;SDS011;6514;48.606;9.222;2024-01-06T02:50:28;3.63;;;1.40;;
12892;SDS011;6514;48.606;9.222;2024-01-06T02:52:55;2.00;;;1.40;;
12892;SDS011;6514;48.606;9.222;2024-01-06T02:55:21;1.50;;;1.23;;
12892;SDS011;6514;48.606;9.222;2024-01-06T02:57:50;3.20;;;1.50;;
12892;SDS011;6514;48.606;9.222;2024-01-06T03:00:17;2.13;;;1.30;;
12892;SDS011;6514;48.606;9.222;2024-01-06T03:02:44;3.23;;;1.50;;
12892;SDS011;6514;48.606;9.222;2024-01-06T03:05:11;3.27;;;1.40;;
12892;SDS011;6514;48.606;9.222;2024-01-06T03:07:37;1.83;;;1.13;;
12892;SDS011;6514;48.606;9.222;2024-01-06T03:10:05;2.10;;;1.37;;
12892;SDS011;6514;48.606;9.222;2024-01-06T03:12:32;2.63;;;1.20;;
12892;SDS011;6514;48.606;9.222;2024-01-06T03:15:00;4.50;;;1.60;;
12892;SDS011;6514;48.606;9.222;2024-01-06T03:17:27;2.80;;;1.43;;
12892;SDS011;6514;48.606;9.222;2024-01-06T03:19:54;2.80;;;1.20;;
12892;SDS011;6514;48.606;9.222;2024-01-06T03:22:21;1.67;;;0.93;;
12892;SDS011;6514;48.606;9.222;2024-01-06T03:24:48;2.40;;;1.40;;
12892;SDS011;6514;48.606;9.222;2024-01-06T03:27:14;2.40;;;1.30;;
12892;SDS011;6514;48.606;9.222;2024-01-06T03:29:41;2.53;;;1.20;;
12892;SDS011;6514;48.606;9.222;2024-01-06T03:32:09;3.40;;;1.23;;
12892;SDS011;6514;48.606;9.222;2024-01-06T03:34:36;3.20;;;1.40;;
12892;SDS011;6514;48.606;9.222;2024-01-06T03:37:03;2.60;;;1.70;;
12892;SDS011;6514;48.606;9.222;2024-01-06T03:39:30;1.93;;;1.30;;
12892;SDS011;6514;48.606;9.222;2024-01-06T03:41:56;5.13;;;1.90;;
12892;SDS011;6514;48.606;9.222;2024-01-06T03:44:23;2.20;;;1.47;;
12892;SDS011;6514;48.606;9.222;2024-01-06T03:46:55;3.13;;;1.57;;
12892;SDS011;6514;48.606;9.222;2024-01-06T03:49:23;2.70;;;1.53;;
12892;SDS011;6514;48.606;9.222;2024-01-06T03:51:50;2.27;;;1.60;;
12892;SDS011;6514;48.606;9.222;2024-01-06T03:54:17;2.40;;;1.60;;
12892;SDS011;6514;48.606;9.222;2024-01-06T03:56:44;1.70;;;1.50;;
12892;SDS011;6514;48.606;9.222;2024-01-06T03:59:10;2.77;;;1.40;;
12892;SDS011;6514;48.606;9.222;2024-01-06T04:01:37;2.83;;;1.67;;
12892;SDS011;6514;48.606;9.222;2024-01-06T04:04:04;2.30;;;1.47;;
12892;SDS011;6514;48.606;9.222;2024-01-06T04:06:33;6.77;;;1.73;;
12892;SDS011;6514;48.606;9.222;2024-01-06T04:09:00;3.13;;;1.33;;
12892;SDS011;6514;48.606;9.222;2024-01-06T04:11:27;3.40;;;1.50;;
12892;SDS011;6514;48.606;9.222;2024-01-06T04:13:52;1.90;;;1.60;;
12892;SDS011;6514;48.606;9.222;2024-01-06T04:16:19;5.07;;;1.80;;
12892;SDS011;6514;48.606;9.222;2024-01-06T04:18:46;2.80;;;1.40;;
12892;SDS011;6514;48.606;9.222;2024-01-06T04:21:13;2.53;;;1.77;;
12892;SDS011;6514;48.606;9.222;2024-01-06T04:23:41;4.03;;;1.80;;
12892;SDS011;6514;48.606;9.222;2024-01-06T04:26:08;3.90;;;1.67;;
12892;SDS011;6514;48.606;9.222;2024-01-06T04:28:34;3.30;;;1.80;;
12892;SDS011;6514;48.606;9.222;2024-01-06T04:31:01;3.20;;;1.67;;
12892;SDS011;6514;48.606;9.222;2024-01-06T04:33:28;2.17;;;1.37;;
12892;SDS011;6514;48.606;9.222;2024-01-06T04:35:56;2.23;;;1.20;;
12892;SDS011;6514;48.606;9.222;2024-01-06T04:38:24;2.93;;;1.70;;
12892;SDS011;6514;48.606;9.222;2024-01-06T04:40:52;3.77;;;1.17;;
12892;SDS011;6514;48.606;9.222;2024-01-06T04:43:19;2.97;;;1.73;;
12892;SDS011;6514;48.606;9.222;2024-01-06T04:45:45;2.60;;;1.40;;
12892;SDS011;6514;48.606;9.222;2024-01-06T04:48:12;2.10;;;1.43;;
12892;SDS011;6514;48.606;9.222;2024-01-06T04:50:39;3.00;;;1.40;;
12892;SDS011;6514;48.606;9.222;2024-01-06T04:53:06;1.40;;;1.10;;
12892;SDS011;6514;48.606;9.222;2024-01-06T04:55:33;2.20;;;1.33;;
12892;SDS011;6514;48.606;9.222;2024-01-06T04:58:01;2.80;;;1.47;;
12892;SDS011;6514;48.606;9.222;2024-01-06T05:00:27;3.10;;;1.20;;
12892;SDS011;6514;48.606;9.222;2024-01-06T05:02:55;2.97;;;1.30;;
12892;SDS011;6514;48.606;9.222;2024-01-06T05:05:22;1.60;;;1.07;;
12892;SDS011;6514;48.606;9.222;2024-01-06T05:07:48;1.93;;;1.60;;
12892;SDS011;6514;48.606;9.222;2024-01-06T05:10:15;2.13;;;1.50;;
12892;SDS011;6514;48.606;9.222;2024-01-06T05:12:42;2.87;;;1.70;;
12892;SDS011;6514;48.606;9.222;2024-01-06T05:15:10;1.97;;;1.63;;
12892;SDS011;6514;48.606;9.222;2024-01-06T05:17:38;2.27;;;1.53;;
12892;SDS011;6514;48.606;9.222;2024-01-06T05:20:05;3.90;;;1.93;;
12892;SDS011;6514;48.606;9.222;2024-01-06T05:22:33;2.73;;;1.70;;
12892;SDS011;6514;48.606;9.222;2024-01-06T05:24:59;3.43;;;2.43;;
12892;SDS011;6514;48.606;9.222;2024-01-06T05:27:26;4.27;;;3.10;;
12892;SDS011;6514;48.606;9.222;2024-01-06T05:29:53;4.20;;;2.17;;
12892;SDS011;6514;48.606;9.222;2024-01-06T05:32:21;4.33;;;2.20;;
12892;SDS011;6514;48.606;9.222;2024-01-06T05:34:48;3.87;;;2.53;;
12892;SDS011;6514;48.606;9.222;2024-01-06T05:37:15;5.27;;;2.40;;
12892;SDS011;6514;48.606;9.222;2024-01-06T05:39:42;3.77;;;2.00;;
12892;SDS011;6514;48.606;9.222;2024-01-06T05:42:09;3.30;;;2.30;;
12892;SDS011;6514;48.606;9.222;2024-01-06T05:44:37;4.43;;;2.07;;
12892;SDS011;6514;48.606;9.222;2024-01-06T05:47:04;3.97;;;1.90;;
12892;SDS011;6514;48.606;9.222;2024-01-06T05:49:33;5.97;;;2.27;;
12892;SDS011;6514;48.606;9.222;2024-01-06T05:51:59;2.53;;;2.10;;
12892;SDS011;6514;48.606;9.222;2024-01-06T05:54:26;2.93;;;2.20;;
12892;SDS011;6514;48.606;9.222;2024-01-06T05:56:53;2.53;;;1.90;;
12892;SDS011;6514;48.606;9.222;2024-01-06T05:59:21;2.30;;;1.90;;
12892;SDS011;6514;48.606;9.222;2024-01-06T06:01:48;5.23;;;1.90;;
12892;SDS011;6514;48.606;9.222;2024-01-06T06:04:15;3.43;;;1.53;;
12892;SDS011;6514;48.606;9.222;2024-01-06T06:06:43;4.17;;;2.27;;
12892;SDS011;6514;48.606;9.222;2024-01-06T06:09:10;2.70;;;2.30;;
12892;SDS011;6514;48.606;9.222;2024-01-06T06:11:38;6.27;;;2.27;;
12892;SDS011;6514;48.606;9.222;2024-01-06T06:14:04;3.93;;;2.60;;
12892;SDS011;6514;48.606;9.222;2024-01-06T06:16:31;4.87;;;2.20;;
12892;SDS011;6514;48.606;9.222;2024-01-06T06:18:58;3.63;;;2.07;;
12892;SDS011;6514;48.606;9.222;2024-01-06T06:21:25;2.50;;;1.93;;
12892;SDS011;6514;48.606;9.222;2024-01-06T06:23:53;3.83;;;1.83;;
12892;SDS011;6514;48.606;9.222;2024-01-06T06:26:20;5.40;;;2.03;;
12892;SDS011;6514;48.606;9.222;2024-01-06T06:28:46;4.83;;;2.10;;
12892;SDS011;6514;48.606;9.222;2024-01-06T06:31:13;3.37;;;1.80;;
12892;SDS011;6514;48.606;9.222;2024-01-06T06:33:40;2.37;;;1.80;;
12892;SDS011;6514;48.606;9.222;2024-01-06T06:36:07;2.63;;;2.00;;
12892;SDS011;6514;48.606;9.222;2024-01-06T06:38:34;3.57;;;2.50;;
12892;SDS011;6514;48.606;9.222;2024-01-06T06:41:02;2.63;;;1.70;;
12892;SDS011;6514;48.606;9.222;2024-01-06T06:43:30;4.53;;;2.00;;
12892;SDS011;6514;48.606;9.222;2024-01-06T06:45:56;4.17;;;1.60;;
12892;SDS011;6514;48.606;9.222;2024-01-06T06:48:23;2.33;;;1.80;;
12892;SDS011;6514;48.606;9.222;2024-01-06T06:50:50;1.97;;;1.77;;
12892;SDS011;6514;48.606;9.222;2024-01-06T06:53:17;2.93;;;1.40;;
12892;SDS011;6514;48.606;9.222;2024-01-06T06:55:44;3.60;;;1.40;;
12892;SDS011;6514;48.606;9.222;2024-01-06T06:58:12;2.37;;;1.23;;
12892;SDS011;6514;48.606;9.222;2024-01-06T07:00:39;2.83;;;1.60;;
12892;SDS011;6514;48.606;9.222;2024-01-06T07:03:07;2.00;;;1.40;;
12892;SDS011;6514;48.606;9.222;2024-01-06T07:05:34;3.60;;;1.40;;
12892;SDS011;6514;48.606;9.222;2024-01-06T07:08:01;4.60;;;1.70;;
12892;SDS011;6514;48.606;9.222;2024-01-06T07:10:28;1.97;;;1.47;;
12892;SDS011;6514;48.606;9.222;2024-01-06T07:12:55;2.13;;;1.73;;
12892;SDS011;6514;48.606;9.222;2024-01-06T07:15:23;5.80;;;1.73;;
12892;SDS011;6514;48.606;9.222;2024-01-06T07:17:50;3.87;;;1.50;;
12892;SDS011;6514;48.606;9.222;2024-01-06T07:20:16;2.03;;;1.20;;
12892;SDS011;6514;48.606;9.222;2024-01-06T07:22:44;3.13;;;1.20;;
12892;SDS011;6514;48.606;9.222;2024-01-06T07:25:11;2.87;;;1.43;;
12892;SDS011;6514;48.606;9.222;2024-01-06T07:27:38;3.60;;;1.20;;
12892;SDS011;6514;48.606;9.222;2024-01-06T07:30:05;4.90;;;1.20;;
12892;SDS011;6514;48.606;9.222;2024-01-06T07:32:35;4.33;;;1.20;;
12892;SDS011;6514;48.606;9.222;2024-01-06T07:35:02;1.83;;;1.30;;
12892;SDS011;6514;48.606;9.222;2024-01-06T07:37:30;1.23;;;1.00;;
12892;SDS011;6514;48.606;9.222;2024-01-06T07:39:56;2.83;;;1.20;;
12892;SDS011;6514;48.606;9.222;2024-01-06T07:42:23;1.67;;;1.17;;
12892;SDS011;6514;48.606;9.222;2024-01-06T07:44:50;4.63;;;1.20;;
12892;SDS011;6514;48.606;9.222;2024-01-06T07:47:16;2.77;;;1.03;;
12892;SDS011;6514;48.606;9.222;2024-01-06T07:49:44;4.77;;;1.30;;
12892;SDS011;6514;48.606;9.222;2024-01-06T07:52:11;2.63;;;1.53;;
12892;SDS011;6514;48.606;9.222;2024-01-06T07:54:38;1.83;;;0.90;;
12892;SDS011;6514;48.606;9.222;2024-01-06T07:57:05;2.70;;;1.40;;
12892;SDS011;6514;48.606;9.222;2024-01-06T07:59:32;2.47;;;1.30;;
12892;SDS011;6514;48.606;9.222;2024-01-06T08:01:59;1.70;;;1.07;;
12892;SDS011;6514;48.606;9.222;2024-01-06T08:04:25;3.47;;;1.37;;
12892;SDS011;6514;48.606;9.222;2024-01-06T08:06:54;4.17;;;1.50;;
12892;SDS011;6514;48.606;9.222;2024-01-06T08:09:20;1.70;;;1.40;;
12892;SDS011;6514;48.606;9.222;2024-01-06T08:11:48;1.27;;;1.10;;
12892;SDS011;6514;48.606;9.222;2024-01-06T08:14:15;2.80;;;1.37;;
12892;SDS011;6514;48.606;9.222;2024-01-06T08:16:42;2.90;;;1.00;;
12892;SDS011;6514;48.606;9.222;2024-01-06T08:19:09;3.70;;;2.27;;
12892;SDS011;6514;48.606;9.222;2024-01-06T08:21:36;3.30;;;1.27;;
12892;SDS011;6514;48.606;9.222;2024-01-06T08:24:04;2.90;;;1.10;;
12892;SDS011;6514;48.606;9.222;2024-01-06T08:26:31;3.53;;;1.10;;
12892;SDS011;6514;48.606;9.222;2024-01-06T08:28:58;2.87;;;1.17;;
12892;SDS011;6514;48.606;9.222;2024-01-06T08:31:25;3.63;;;1.43;;
12892;SDS011;6514;48.606;9.222;2024-01-06T08:33:52;2.07;;;1.30;;
12892;SDS011;6514;48.606;9.222;2024-01-06T08:36:19;3.40;;;1.50;;
12892;SDS011;6514;48.606;9.222;2024-01-06T08:38:46;3.13;;;1.27;;
12892;SDS011;6514;48.606;9.222;2024-01-06T08:41:15;1.10;;;1.00;;
12892;SDS011;6514;48.606;9.222;2024-01-06T08:43:42;1.93;;;1.10;;
12892;SDS011;6514;48.606;9.222;2024-01-06T08:46:09;4.03;;;0.90;;
12892;SDS011;6514;48.606;9.222;2024-01-06T08:48:36;1.73;;;0.80;;
12892;SDS011;6514;48.606;9.222;2024-01-06T08:51:03;2.03;;;0.90;;
12892;SDS011;6514;48.606;9.222;2024-01-06T08:53:31;1.30;;;0.97;;
12892;SDS011;6514;48.606;9.222;2024-01-06T08:55:58;2.33;;;1.07;;
12892;SDS011;6514;48.606;9.222;2024-01-06T08:58:26;1.33;;;0.90;;
12892;SDS011;6514;48.606;9.222;2024-01-06T09:00:53;1.90;;;1.07;;
12892;SDS011;6514;48.606;9.222;2024-01-06T09:03:20;1.90;;;1.00;;
12892;SDS011;6514;48.606;9.222;2024-01-06T09:05:50;1.23;;;0.83;;
12892;SDS011;6514;48.606;9.222;2024-01-06T09:08:17;1.37;;;1.03;;
12892;SDS011;6514;48.606;9.222;2024-01-06T09:10:44;0.80;;;0.77;;
12892;SDS011;6514;48.606;9.222;2024-01-06T09:13:11;0.70;;;0.70;;
12892;SDS011;6514;48.606;9.222;2024-01-06T09:15:39;0.87;;;0.87;;
12892;SDS011;6514;48.606;9.222;2024-01-06T09:18:06;2.57;;;0.70;;
12892;SDS011;6514;48.606;9.222;2024-01-06T09:20:33;0.97;;;0.80;;
12892;SDS011;6514;48.606;9.222;2024-01-06T09:23:00;1.80;;;0.90;;
12892;SDS011;6514;48.606;9.222;2024-01-06T09:25:27;1.90;;;0.80;;
12892;SDS011;6514;48.606;9.222;2024-01-06T09:27:54;1.70;;;0.80;;
12892;SDS011;6514;48.606;9.222;2024-01-06T09:30:21;2.27;;;1.00;;
12892;SDS011;6514;48.606;9.222;2024-01-06T09:32:49;2.63;;;1.03;;
12892;SDS011;6514;48.606;9.222;2024-01-06T09:35:16;2.33;;;1.00;;
12892;SDS011;6514;48.606;9.222;2024-01-06T09:37:43;1.77;;;0.90;;
12892;SDS011;6514;48.606;9.222;2024-01-06T09:40:11;0.93;;;0.70;;
12892;SDS011;6514;48.606;9.222;2024-01-06T09:42:39;3.23;;;0.60;;
12892;SDS011;6514;48.606;9.222;2024-01-06T09:45:06;0.80;;;0.70;;
12892;SDS011;6514;48.606;9.222;2024-01-06T09:47:37;0.77;;;0.60;;
12892;SDS011;6514;48.606;9.222;2024-01-06T09:50:09;1.30;;;0.60;;
12892;SDS011;6514;48.606;9.222;2024-01-06T09:52:39;1.70;;;0.70;;
12892;SDS011;6514;48.606;9.222;2024-01-06T09:55:08;1.33;;;0.60;;
12892;SDS011;6514;48.606;9.222;2024-01-06T09:57:37;0.83;;;0.80;;
12892;SDS011;6514;48.606;9.222;2024-01-06T10:00:05;1.07;;;0.70;;
12892;SDS011;6514;48.606;9.222;2024-01-06T10:02:34;2.13;;;0.90;;
12892;SDS011;6514;48.606;9.222;2024-01-06T10:05:01;2.03;;;1.13;;
12892;SDS011;6514;48.606;9.222;2024-01-06T10:07:29;1.60;;;1.00;;
12892;SDS011;6514;48.606;9.222;2024-01-06T10:09:56;1.57;;;1.30;;
12892;SDS011;6514;48.606;9.222;2024-01-06T10:12:23;1.97;;;1.27;;
12892;SDS011;6514;48.606;9.222;2024-01-06T10:14:50;1.67;;;1.30;;
12892;SDS011;6514;48.606;9.222;2024-01-06T10:17:17;1.77;;;0.80;;
12892;SDS011;6514;48.606;9.222;2024-01-06T10:19:44;1.50;;;0.80;;
12892;SDS011;6514;48.606;9.222;2024-01-06T10:22:12;2.10;;;1.00;;
12892;SDS011;6514;48.606;9.222;2024-01-06T10:24:41;0.70;;;0.60;;
12892;SDS011;6514;48.606;9.222;2024-01-06T10:27:08;1.70;;;0.50;;
12892;SDS011;6514;48.606;9.222;2024-01-06T10:29:35;1.53;;;0.60;;
12892;SDS011;6514;48.606;9.222;2024-01-06T10:32:02;1.27;;;0.40;;
12892;SDS011;6514;48.606;9.222;2024-01-06T10:34:31;0.50;;;0.50;;
12892;SDS011;6514;48.606;9.222;2024-01-06T10:36:57;0.40;;;0.40;;
12892;SDS011;6514;48.606;9.222;2024-01-06T10:39:25;0.60;;;0.60;;
12892;SDS011;6514;48.606;9.222;2024-01-06T10:41:55;0.77;;;0.60;;
12892;SDS011;6514;48.606;9.222;2024-01-06T10:44:22;0.70;;;0.63;;
12892;SDS011;6514;48.606;9.222;2024-01-06T10:46:50;0.77;;;0.70;;
12892;SDS011;6514;48.606;9.222;2024-01-06T10:49:19;0.60;;;0.60;;
12892;SDS011;6514;48.606;9.222;2024-01-06T10:51:49;0.50;;;0.50;;
12892;SDS011;6514;48.606;9.222;2024-01-06T10:54:17;0.70;;;0.50;;
12892;SDS011;6514;48.606;9.222;2024-01-06T10:56:45;0.83;;;0.70;;
12892;SDS011;6514;48.606;9.222;2024-01-06T10:59:14;0.50;;;0.40;;
12892;SDS011;6514;48.606;9.222;2024-01-06T11:01:41;2.03;;;0.80;;
12892;SDS011;6514;48.606;9.222;2024-01-06T11:04:10;0.80;;;0.50;;
12892;SDS011;6514;48.606;9.222;2024-01-06T11:06:38;0.90;;;0.53;;
12892;SDS011;6514;48.606;9.222;2024-01-06T11:09:07;0.60;;;0.60;;
12892;SDS011;6514;48.606;9.222;2024-01-06T11:11:39;0.70;;;0.70;;
12892;SDS011;6514;48.606;9.222;2024-01-06T11:14:21;2.03;;;0.83;;
12892;SDS011;6514;48.606;9.222;2024-01-06T11:16:49;1.90;;;0.73;;
12892;SDS011;6514;48.606;9.222;2024-01-06T11:22:20;0.80;;;0.80;;
12892;SDS011;6514;48.606;9.222;2024-01-06T11:24:49;1.03;;;0.63;;
12892;SDS011;6514;48.606;9.222;2024-01-06T11:27:17;1.00;;;0.90;;
12892;SDS011;6514;48.606;9.222;2024-01-06T11:29:47;1.17;;;0.70;;
12892;SDS011;6514;48.606;9.222;2024-01-06T11:32:20;2.27;;;1.10;;
12892;SDS011;6514;48.606;9.222;2024-01-06T11:34:51;0.90;;;0.90;;
12892;SDS011;6514;48.606;9.222;2024-01-06T11:37:23;1.37;;;1.10;;
12892;SDS011;6514;48.606;9.222;2024-01-06T11:39:50;1.50;;;0.90;;
12892;SDS011;6514;48.606;9.222;2024-01-06T11:42:18;1.03;;;0.80;;
12892;SDS011;6514;48.606;9.222;2024-01-06T11:44:50;1.63;;;1.13;;
12892;SDS011;6514;48.606;9.222;2024-01-06T11:47:17;1.10;;;1.00;;
12892;SDS011;6514;48.606;9.222;2024-01-06T11:49:48;1.30;;;1.20;;
12892;SDS011;6514;48.606;9.222;2024-01-06T11:52:22;1.30;;;1.20;;
12892;SDS011;6514;48.606;9.222;2024-01-06T11:54:50;0.77;;;0.77;;
12892;SDS011;6514;48.606;9.222;2024-01-06T11:57:18;0.73;;;0.73;;
12892;SDS011;6514;48.606;9.222;2024-01-06T11:59:45;1.47;;;0.70;;
12892;SDS011;6514;48.606;9.222;2024-01-06T12:02:14;0.73;;;0.70;;
12892;SDS011;6514;48.606;9.222;2024-01-06T12:04:40;0.70;;;0.70;;
12892;SDS011;6514;48.606;9.222;2024-01-06T12:07:08;0.50;;;0.50;;
12892;SDS011;6514;48.606;9.222;2024-01-06T12:09:38;0.80;;;0.60;;
12892;SDS011;6514;48.606;9.222;2024-01-06T12:12:05;0.70;;;0.70;;
12892;SDS011;6514;48.606;9.222;2024-01-06T12:14:33;1.30;;;0.60;;
12892;SDS011;6514;48.606;9.222;2024-01-06T12:16:59;0.60;;;0.60;;
12892;SDS011;6514;48.606;9.222;2024-01-06T12:19:29;0.70;;;0.70;;
12892;SDS011;6514;48.606;9.222;2024-01-06T12:21:57;0.57;;;0.57;;
12892;SDS011;6514;48.606;9.222;2024-01-06T12:24:24;3.20;;;0.60;;
12892;SDS011;6514;48.606;9.222;2024-01-06T12:26:54;0.60;;;0.60;;
12892;SDS011;6514;48.606;9.222;2024-01-06T12:29:22;0.60;;;0.60;;
12892;SDS011;6514;48.606;9.222;2024-01-06T12:31:49;0.70;;;0.60;;
12892;SDS011;6514;48.606;9.222;2024-01-06T12:34:16;1.90;;;0.40;;
12892;SDS011;6514;48.606;9.222;2024-01-06T12:36:44;0.77;;;0.50;;
12892;SDS011;6514;48.606;9.222;2024-01-06T12:39:12;0.87;;;0.60;;
12892;SDS011;6514;48.606;9.222;2024-01-06T12:41:41;0.50;;;0.50;;
12892;SDS011;6514;48.606;9.222;2024-01-06T12:44:08;0.83;;;0.80;;
12892;SDS011;6514;48.606;9.222;2024-01-06T12:46:35;0.60;;;0.60;;
12892;SDS011;6514;48.606;9.222;2024-01-06T12:49:02;1.13;;;0.50;;
12892;SDS011;6514;48.606;9.222;2024-01-06T12:51:29;0.53;;;0.43;;
12892;SDS011;6514;48.606;9.222;2024-01-06T12:56:35;0.87;;;0.40;;
12892;SDS011;6514;48.606;9.222;2024-01-06T12:59:02;0.80;;;0.53;;
12892;SDS011;6514;48.606;9.222;2024-01-06T13:01:29;4.63;;;0.70;;
12892;SDS011;6514;48.606;9.222;2024-01-06T13:03:56;0.57;;;0.50;;
12892;SDS011;6514;48.606;9.222;2024-01-06T13:06:25;1.70;;;0.60;;
12892;SDS011;6514;48.606;9.222;2024-01-06T13:08:52;0.60;;;0.60;;
12892;SDS011;6514;48.606;9.222;2024-01-06T13:11:19;1.63;;;0.50;;
12892;SDS011;6514;48.606;9.222;2024-01-06T13:13:48;0.50;;;0.50;;
12892;SDS011;6514;48.606;9.222;2024-01-06T13:16:14;0.67;;;0.40;;
12892;SDS011;6514;48.606;9.222;2024-01-06T13:18:41;0.80;;;0.60;;
12892;SDS011;6514;48.606;9.222;2024-01-06T13:21:08;1.03;;;0.67;;
12892;SDS011;6514;48.606;9.222;2024-01-06T13:23:35;0.60;;;0.60;;
12892;SDS011;6514;48.606;9.222;2024-01-06T13:26:02;0.93;;;0.50;;
12892;SDS011;6514;48.606;9.222;2024-01-06T13:28:29;0.60;;;0.50;;
12892;SDS011;6514;48.606;9.222;2024-01-06T13:30:57;0.50;;;0.50;;
12892;SDS011;6514;48.606;9.222;2024-01-06T13:33:23;0.50;;;0.40;;
12892;SDS011;6514;48.606;9.222;2024-01-06T13:35:50;0.50;;;0.47;;
12892;SDS011;6514;48.606;9.222;2024-01-06T13:38:17;0.60;;;0.60;;
12892;SDS011;6514;48.606;9.222;2024-01-06T13:40:44;0.43;;;0.43;;
12892;SDS011;6514;48.606;9.222;2024-01-06T13:43:11;0.50;;;0.50;;
12892;SDS011;6514;48.606;9.222;2024-01-06T13:45:40;0.40;;;0.40;;
12892;SDS011;6514;48.606;9.222;2024-01-06T13:48:09;0.40;;;0.40;;
12892;SDS011;6514;48.606;9.222;2024-01-06T13:50:36;0.70;;;0.70;;
12892;SDS011;6514;48.606;9.222;2024-01-06T13:53:03;0.70;;;0.70;;
12892;SDS011;6514;48.606;9.222;2024-01-06T13:55:31;0.70;;;0.70;;
12892;SDS011;6514;48.606;9.222;2024-01-06T13:57:58;1.23;;;0.77;;
12892;SDS011;6514;48.606;9.222;2024-01-06T14:00:25;0.80;;;0.80;;
12892;SDS011;6514;48.606;9.222;2024-01-06T14:02:52;1.13;;;1.03;;
12892;SDS011;6514;48.606;9.222;2024-01-06T14:05:21;1.20;;;1.10;;
12892;SDS011;6514;48.606;9.222;2024-01-06T14:07:48;0.90;;;0.90;;
12892;SDS011;6514;48.606;9.222;2024-01-06T14:10:15;0.93;;;0.90;;
12892;SDS011;6514;48.606;9.222;2024-01-06T14:12:42;1.20;;;1.10;;
12892;SDS011;6514;48.606;9.222;2024-01-06T14:15:09;1.23;;;1.13;;
12892;SDS011;6514;48.606;9.222;2024-01-06T14:17:36;1.17;;;1.07;;
12892;SDS011;6514;48.606;9.222;2024-01-06T14:20:04;1.93;;;1.47;;
12892;SDS011;6514;48.606;9.222;2024-01-06T14:22:33;1.20;;;1.10;;
12892;SDS011;6514;48.606;9.222;2024-01-06T14:25:00;1.23;;;1.13;;
12892;SDS011;6514;48.606;9.222;2024-01-06T14:27:27;1.70;;;1.17;;
12892;SDS011;6514;48.606;9.222;2024-01-06T14:29:54;1.23;;;1.13;;
12892;SDS011;6514;48.606;9.222;2024-01-06T14:32:22;1.63;;;1.30;;
12892;SDS011;6514;48.606;9.222;2024-01-06T14:34:49;1.10;;;1.10;;
12892;SDS011;6514;48.606;9.222;2024-01-06T14:37:16;1.90;;;1.40;;
12892;SDS011;6514;48.606;9.222;2024-01-06T14:39:45;1.30;;;1.20;;
12892;SDS011;6514;48.606;9.222;2024-01-06T14:42:11;1.90;;;1.23;;
12892;SDS011;6514;48.606;9.222;2024-01-06T14:44:38;1.40;;;1.30;;
12892;SDS011;6514;48.606;9.222;2024-01-06T14:47:05;2.17;;;1.90;;
12892;SDS011;6514;48.606;9.222;2024-01-06T14:49:33;2.17;;;1.97;;
12892;SDS011;6514;48.606;9.222;2024-01-06T14:52:00;5.20;;;1.90;;
12892;SDS011;6514;48.606;9.222;2024-01-06T14:54:28;2.07;;;1.87;;
12892;SDS011;6514;48.606;9.222;2024-01-06T14:56:57;2.30;;;2.10;;
12892;SDS011;6514;48.606;9.222;2024-01-06T14:59:24;1.83;;;1.73;;
12892;SDS011;6514;48.606;9.222;2024-01-06T15:01:51;2.43;;;2.13;;
12892;SDS011;6514;48.606;9.222;2024-01-06T15:04:18;2.60;;;2.10;;
12892;SDS011;6514;48.606;9.222;2024-01-06T15:06:45;3.90;;;2.13;;